UDYZURSS

Guest
Details From UDYZ - ZVARTNOTS
To URSS - Sochi
Flight Number -
Tags generated
Created
Modified
Stats Distance 291 nm / 539 km
Max Altitude 34,700 ft / 10,577 m
Waypoints 6
Social Downloads 0
Likes 0
Share

Download

Looking for another format? Having issues loading an existing format? Contact us
Advertisement - Login to hide

Notes

Basic altitude profile: - Ascent Rate: 2500ft/min - Ascent Speed: 250kts - Cruise Altitude: 35000ft - Cruise Speed: 420kts - Descent Rate: 1500ft/min - Descent Speed: 250kts Options: - Use NATs: yes - Use PACOTS: yes - Use low airways: yes - Use high airways: yes

Route

UDYZ TUNIS UA277 IBERI A277 ALIKA URSS

ID Type Via Altitude (ft/m) Position (lat/lon) Dist (leg/tot) Name
O UDYZ APT - 0 / 0 40.14727 / 44.39588 - / 0 nm ZVARTNOTS
TUNIS FIX - 24,000 / 7,315 41.16667 / 43.78222 67 / 67 nm
BARUS FIX UA277 (AWY-HI) 34,700 / 10,577 41.90389 / 42.84167 61 / 128 nm
IBERI FIX UA277 (AWY-HI) 22,500 / 6,858 42.16083 / 41.72167 52 / 180 nm
ALIKA FIX A277 (AWY-HI) 18,500 / 5,639 42.25250 / 41.53472 9 / 190 nm
O URSS APT - 0 / 0 43.44475 / 39.94730 100 / 290 nm Sochi

Altitude Profile

Advertisement - Login to hide

Weather


0- 5 10 15 20 25 30 35+ Temperature / °C

Clouds and Precipitation
Forecast for 2020-12-05 06:00 UTC. Updated 5 hours ago

Ground ~20,000 ft ~40,000 ft Winds

UDYZ

Details ICAO UDYZ (EVN)
Name Yerevan Zvartnots Airport
Region Armenia
Timezone Asia/Yerevan (UTC+4.0)
Stats Elevation 2,837 ft / 865 m (AMSL)
Location 40.147300° 44.395900°
Runways 1
Magnetic Variation 6.429° E

METAR

UDYZ 050830Z 13005KT 6000 BKN043 05/M01 Q1024 R09/010070 NOSIG

Decode

TAF

TAF UDYZ 050505Z 0506/0606 VRB06KT 6000 BKN030= TAF UDSG 050501Z 0506/0606 20006KT 9999 OVC020 TEMPO 0512/0521 35006KT 3000 BR

Decode

Departure Runways

ID Width Length Bearing (true/mag) Surface Threshold Overrun Markings Lighting
09 184 ft / 56 m 12,590 ft / 3,837 m 89.66° / 83.23° ASPHALT 0 ft / 0 m 0 ft / 0 m PREC-APP CENTERLINE EDGE THRESHOLD ALSF-II TDZ
27 184 ft / 56 m 12,590 ft / 3,837 m 269.69° / 263.26° ASPHALT 0 ft / 0 m 0 ft / 0 m PREC-APP CENTERLINE EDGE THRESHOLD

URSS

Details ICAO URSS (AER)
Name Sochi / Adler Intl
Region Russia
Timezone Europe/Moscow (UTC+3.0)
Stats Elevation 83 ft / 25 m (AMSL)
Location 43.444700° 39.947100°
Runways 2
Magnetic Variation 7.232° E

METAR

URSS 050830Z 05002MPS 9999 NSC 13/02 Q1021 R02/010070 R06/010070 NOSIG RMK QFE764 R06/11002MPS QFE764

Decode

TAF

TAF URSS 050755Z 0509/0609 28003G08MPS 9999 NSC BECMG 0514/0515 05003G08MPS

Decode

Destination Runways

ID Width Length Bearing (true/mag) Surface Threshold Overrun Markings Lighting
02 161 ft / 49 m 8,205 ft / 2,501 m 28.61° / 21.38° CONCRETE 0 ft / 0 m 164 ft / 50 m PREC-APP CENTERLINE EDGE THRESHOLD ALSF-II
06 148 ft / 45 m 9,666 ft / 2,946 m 64.74° / 57.51° CONCRETE 0 ft / 0 m 230 ft / 70 m PREC-APP CENTERLINE EDGE THRESHOLD ALSF-II REIL-OMNI
20 161 ft / 49 m 8,205 ft / 2,501 m 208.62° / 201.39° CONCRETE 0 ft / 0 m 164 ft / 50 m PREC-APP CENTERLINE EDGE THRESHOLD ALSF-II REIL-OMNI
24 148 ft / 45 m 9,666 ft / 2,946 m 244.77° / 237.54° CONCRETE 0 ft / 0 m 0 ft / 0 m PREC-APP CENTERLINE EDGE THRESHOLD ALSF-II REIL-OMNI

Approach Navaids

Runway Type Ident Frequency Range Bearing (true/mag) Slope Elevation
02 LOC-ILS IAD 110.50 MHz 18 nm / 33 km 28.62° / 21.39 ° - 83 ft / 25 m (AMSL)
02 GS IAD 110.50 MHz 10 nm / 19 km 28.62° / 21.39 ° 2.83° 83 ft / 25 m (AMSL)
02 OM OM - - 28.98° / 21.75 ° - 89 ft / 27 m (AMSL)
02 MM MM - - 28.98° / 21.75 ° - 89 ft / 27 m (AMSL)
06 GS ISO 111.10 MHz 10 nm / 19 km 64.76° / 57.53 ° 2.83° 83 ft / 25 m (AMSL)
06 OM OM - - 64.91° / 57.68 ° - 89 ft / 27 m (AMSL)
06 LOC-ILS ISO 111.10 MHz 18 nm / 33 km 64.76° / 57.53 ° - 83 ft / 25 m (AMSL)

Popular Alternatives